Time;durP1;ratioP1;P1;durP2;ratioP2;P2;SDS_P1;SDS_P2;PMS_P1;PMS_P2;Temp;Humidity;BMP_temperature;BMP_pressure;BME280_temperature;BME280_humidity;BME280_pressure;Samples;Min_cycle;Max_cycle;Signal;HPM_P1;HPM_P2
2022/10/10 00:00:38;;;;;;;8.77;5.63;;;;;;;5.70;100.00;101157.56;5065960;28;20036;-76
2022/10/10 00:03:05;;;;;;;11.60;5.82;;;;;;;5.68;100.00;101155.78;5063257;28;20029;-75
2022/10/10 00:05:30;;;;;;;7.57;5.50;;;;;;;5.67;100.00;101149.66;5060517;28;20418;-76
2022/10/10 00:07:56;;;;;;;18.55;6.13;;;;;;;5.65;100.00;101151.34;5043753;28;20052;-75
2022/10/10 00:10:21;;;;;;;9.65;5.60;;;;;;;5.62;100.00;101146.03;5063612;28;20032;-75
2022/10/10 00:12:47;;;;;;;9.10;5.43;;;;;;;5.61;100.00;101149.53;5065645;28;20029;-75
2022/10/10 00:15:13;;;;;;;10.80;5.80;;;;;;;5.58;100.00;101143.31;5062283;28;20501;-75
2022/10/10 00:17:39;;;;;;;9.00;5.50;;;;;;;5.54;100.00;101147.59;5059477;28;20071;-75
2022/10/10 00:20:05;;;;;;;10.85;5.40;;;;;;;5.51;100.00;101149.25;5063432;28;20083;-76
2022/10/10 00:22:30;;;;;;;10.57;5.32;;;;;;;5.52;100.00;101148.41;5064191;28;20556;-75
2022/10/10 00:24:56;;;;;;;8.48;5.82;;;;;;;5.52;100.00;101144.03;5061904;28;20045;-75
2022/10/10 00:27:21;;;;;;;12.18;6.03;;;;;;;5.53;100.00;101144.94;5065181;28;20372;-76
2022/10/10 00:29:46;;;;;;;11.60;6.00;;;;;;;5.53;100.00;101130.13;5061761;28;20557;-76
2022/10/10 00:32:12;;;;;;;7.90;5.50;;;;;;;5.52;100.00;101128.34;5062526;28;20411;-76
2022/10/10 00:34:37;;;;;;;9.52;5.70;;;;;;;5.51;100.00;101130.94;5061975;28;20484;-75
2022/10/10 00:37:02;;;;;;;9.20;5.30;;;;;;;5.52;100.00;101130.94;5063757;28;20435;-76
2022/10/10 00:39:28;;;;;;;7.78;5.78;;;;;;;5.51;100.00;101137.06;5064105;28;20388;-76
2022/10/10 00:41:53;;;;;;;10.52;5.30;;;;;;;5.50;100.00;101127.41;5062740;28;20502;-76
2022/10/10 00:44:18;;;;;;;8.77;5.85;;;;;;;5.48;100.00;101135.25;5065056;28;20529;-76
2022/10/10 00:46:44;;;;;;;13.35;6.25;;;;;;;5.48;100.00;101136.97;5061614;28;20036;-75
2022/10/10 00:49:23;;;;;;;11.60;5.90;;;;;;;5.46;100.00;101129.06;5063444;28;20044;-75
2022/10/10 00:51:53;;;;;;;8.43;5.22;;;;;;;5.43;100.00;101129.00;5064963;28;20062;-76
2022/10/10 00:54:20;;;;;;;6.40;5.22;;;;;;;5.40;100.00;101130.69;5058551;28;20487;-76
2022/10/10 00:56:57;;;;;;;8.45;5.93;;;;;;;5.40;100.00;101122.81;5057005;28;20107;-75
2022/10/10 00:59:24;;;;;;;9.43;5.43;;;;;;;5.39;100.00;101124.53;5061174;28;20033;-76
2022/10/10 01:01:49;;;;;;;9.32;5.72;;;;;;;5.39;100.00;101115.81;5064731;28;20044;-75
2022/10/10 01:04:35;;;;;;;8.73;6.32;;;;;;;5.40;100.00;101117.59;5057416;28;20045;-75
2022/10/10 01:07:03;;;;;;;8.18;5.88;;;;;;;5.40;100.00;101113.22;5067405;28;20128;-75
2022/10/10 01:09:30;;;;;;;7.72;5.60;;;;;;;5.39;100.00;101118.41;5063280;28;20028;-76
2022/10/10 01:12:22;;;;;;;7.70;5.28;;;;;;;5.37;100.00;101113.16;5063648;28;20119;-76
2022/10/10 01:15:09;;;;;;;9.30;5.80;;;;;;;5.37;100.00;101117.50;5061101;28;20097;-76
2022/10/10 01:17:48;;;;;;;9.30;5.07;;;;;;;5.35;100.00;101113.97;5061712;28;20295;-76
2022/10/10 01:20:33;;;;;;;9.43;6.05;;;;;;;5.34;100.00;101109.56;5058752;28;20029;-75
2022/10/10 01:23:29;;;;;;;7.40;5.90;;;;;;;5.35;100.00;101113.97;5059564;28;20032;-75
2022/10/10 01:26:17;;;;;;;11.38;5.80;;;;;;;5.35;100.00;101104.38;5059047;28;20621;-76
2022/10/10 01:28:49;;;;;;;10.45;5.47;;;;;;;5.35;100.00;101101.78;5055294;28;20041;-75
2022/10/10 01:31:21;;;;;;;10.10;5.65;;;;;;;5.37;100.00;101096.56;5060962;28;20040;-76
2022/10/10 01:34:06;;;;;;;8.02;5.28;;;;;;;5.39;100.00;101089.63;5064377;28;20037;-76
2022/10/10 01:36:42;;;;;;;9.38;5.50;;;;;;;5.42;100.00;101094.94;5062683;28;20513;-76
2022/10/10 01:39:17;;;;;;;6.90;5.53;;;;;;;5.41;100.00;101088.81;5059903;28;20108;-76
2022/10/10 01:41:55;;;;;;;10.32;6.00;;;;;;;5.42;100.00;101084.47;5060921;28;20087;-76
2022/10/10 01:44:21;;;;;;;7.90;5.10;;;;;;;5.42;100.00;101079.22;5074758;28;20033;-75
2022/10/10 01:46:46;;;;;;;7.38;5.07;;;;;;;5.41;100.00;101082.69;5061466;28;20041;-76
2022/10/10 01:49:11;;;;;;;8.02;5.78;;;;;;;5.40;100.00;101086.19;5063667;28;20739;-75
2022/10/10 01:51:53;;;;;;;8.90;5.47;;;;;;;5.40;100.00;101079.22;5060669;28;20410;-75
2022/10/10 01:54:35;;;;;;;9.43;6.15;;;;;;;5.39;100.00;101071.31;5061342;28;20045;-75
2022/10/10 01:57:26;;;;;;;13.88;5.43;;;;;;;5.37;100.00;101073.00;5059575;28;20033;-75
2022/10/10 02:00:12;;;;;;;5.78;5.15;;;;;;;5.33;100.00;101068.56;5059183;28;20028;-75
2022/10/10 02:02:52;;;;;;;11.55;5.70;;;;;;;5.28;100.00;101060.59;5061865;28;20032;-75
2022/10/10 02:06:00;;;;;;;10.15;6.13;;;;;;;5.24;100.00;101062.25;5055572;28;20043;-75
2022/10/10 02:08:36;;;;;;;7.40;4.90;;;;;;;5.19;100.00;101052.53;5053231;28;20410;-76
2022/10/10 02:11:07;;;;;;;7.93;6.20;;;;;;;5.13;100.00;101042.78;5057746;28;20060;-75
2022/10/10 02:13:50;;;;;;;10.18;5.88;;;;;;;5.11;100.00;101047.09;5060051;28;20178;-75
2022/10/10 02:16:28;;;;;;;6.43;5.20;;;;;;;5.09;100.00;101042.69;5058475;28;20115;-76
2022/10/10 02:18:56;;;;;;;6.65;5.82;;;;;;;5.04;100.00;101039.94;5059685;28;20131;-76
2022/10/10 02:21:23;;;;;;;12.45;5.38;;;;;;;5.00;100.00;101033.78;5056630;28;20032;-76
2022/10/10 02:23:51;;;;;;;9.38;5.90;;;;;;;4.97;100.00;101032.78;5059100;28;20123;-75
2022/10/10 02:26:17;;;;;;;8.98;5.65;;;;;;;4.94;100.00;101027.50;5062182;28;20024;-75
2022/10/10 02:28:52;;;;;;;9.13;5.35;;;;;;;4.91;100.00;101027.41;5059812;28;20032;-75
2022/10/10 02:31:26;;;;;;;7.13;5.45;;;;;;;4.89;100.00;101029.09;5058326;28;20033;-75
2022/10/10 02:33:58;;;;;;;9.40;5.65;;;;;;;4.89;100.00;101018.63;5060210;28;20037;-76
2022/10/10 02:36:25;;;;;;;;;;;;;;;4.87;100.00;101012.47;5056243;28;20040;-76
2022/10/10 02:38:52;;;;;;;6.05;5.13;;;;;;;4.86;100.00;101018.56;5061185;28;19919;-76
2022/10/10 02:41:20;;;;;;;7.95;6.00;;;;;;;4.86;100.00;101015.94;5060879;28;20454;-75
2022/10/10 02:43:48;;;;;;;10.00;5.80;;;;;;;4.86;100.00;101010.72;5062818;28;20035;-75
2022/10/10 02:46:13;;;;;;;9.63;6.53;;;;;;;4.86;100.00;101013.34;5055602;28;20033;-76
2022/10/10 02:48:39;;;;;;;9.40;5.40;;;;;;;4.87;100.00;101007.25;5062402;28;20055;-76
2022/10/10 02:51:05;;;;;;;9.40;5.88;;;;;;;4.88;100.00;101007.31;5056513;28;20037;-75
2022/10/10 02:53:30;;;;;;;5.75;5.13;;;;;;;4.89;100.00;101009.06;5061547;28;20041;-75
2022/10/10 02:55:56;;;;;;;9.60;5.63;;;;;;;4.90;100.00;101007.31;5059963;28;20037;-76
2022/10/10 02:58:22;;;;;;;9.70;5.78;;;;;;;4.91;100.00;101001.25;5058907;28;20043;-75
2022/10/10 03:00:47;;;;;;;11.48;5.30;;;;;;;4.91;100.00;101012.59;5062932;28;20445;-75
2022/10/10 03:03:12;;;;;;;10.85;6.55;;;;;;;4.92;100.00;100995.16;5057830;28;20032;-76
2022/10/10 03:05:38;;;;;;;7.32;5.75;;;;;;;4.92;100.00;100997.78;5059011;28;20036;-75
2022/10/10 03:08:03;;;;;;;10.18;6.00;;;;;;;4.93;100.00;100991.72;5059335;28;20064;-76
2022/10/10 03:10:28;;;;;;;8.63;6.72;;;;;;;4.93;100.00;100989.13;5057355;28;20083;-75
2022/10/10 03:12:54;;;;;;;8.80;7.05;;;;;;;4.92;100.00;100992.56;5059768;28;20488;-76
2022/10/10 03:15:19;;;;;;;11.02;6.05;;;;;;;4.92;100.00;100987.31;5062371;28;20037;-75
2022/10/10 03:17:44;;;;;;;7.57;5.57;;;;;;;4.91;100.00;100986.44;5059388;28;20037;-75
2022/10/10 03:20:10;;;;;;;9.95;5.60;;;;;;;4.91;100.00;100975.09;5062282;28;20094;-76
2022/10/10 03:22:35;;;;;;;11.43;5.57;;;;;;;4.93;100.00;100978.66;5059409;28;20040;-76
2022/10/10 03:25:01;;;;;;;8.65;5.65;;;;;;;4.94;100.00;100969.94;5060485;28;20047;-75
2022/10/10 03:27:26;;;;;;;8.35;6.85;;;;;;;4.98;100.00;100974.41;5061531;28;20047;-75
2022/10/10 03:29:51;;;;;;;12.18;6.57;;;;;;;5.01;100.00;100966.63;5059134;28;20519;-75
2022/10/10 03:32:17;;;;;;;17.10;7.20;;;;;;;5.04;100.00;100967.56;5061348;28;20159;-76
2022/10/10 03:34:42;;;;;;;10.35;5.72;;;;;;;5.11;100.00;100962.47;5058346;28;20051;-75
2022/10/10 03:37:08;;;;;;;7.43;5.38;;;;;;;5.18;100.00;100965.25;5061835;28;20446;-75
2022/10/10 03:39:33;;;;;;;8.00;6.22;;;;;;;5.23;100.00;100953.16;5064755;28;20470;-76
2022/10/10 03:41:58;;;;;;;11.25;6.47;;;;;;;5.28;100.00;100940.19;5064232;28;20094;-75
2022/10/10 03:44:24;;;;;;;10.07;5.43;;;;;;;5.34;100.00;100942.06;5065851;28;20028;-76
2022/10/10 03:46:49;;;;;;;8.95;4.95;;;;;;;5.39;100.00;100943.03;5062861;28;20037;-76
2022/10/10 03:49:14;;;;;;;9.25;5.63;;;;;;;5.44;100.00;100942.28;5059089;28;20033;-75
2022/10/10 03:51:40;;;;;;;9.75;5.85;;;;;;;5.48;100.00;100943.25;5065728;28;20033;-76
2022/10/10 03:54:05;;;;;;;8.85;5.22;;;;;;;5.55;100.00;100939.88;5062048;28;20072;-76
2022/10/10 03:56:31;;;;;;;6.60;4.82;;;;;;;5.61;100.00;100933.91;5064149;28;20094;-76
2022/10/10 03:58:59;;;;;;;8.35;5.18;;;;;;;5.67;100.00;100924.44;5062285;28;20129;-76
2022/10/10 04:01:25;;;;;;;7.10;5.20;;;;;;;5.71;100.00;100915.81;5064984;28;20506;-76
2022/10/10 04:03:50;;;;;;;6.25;5.07;;;;;;;5.77;100.00;100915.03;5062668;28;20072;-76
2022/10/10 04:06:16;;;;;;;6.90;5.57;;;;;;;5.79;100.00;100920.28;5061938;28;20166;-76
2022/10/10 04:08:41;;;;;;;7.28;6.00;;;;;;;5.83;100.00;100919.50;5056491;28;20067;-76
2022/10/10 04:11:06;;;;;;;5.43;4.63;;;;;;;5.85;100.00;100916.06;5108215;22;20411;-73
2022/10/10 04:13:32;;;;;;;9.68;5.40;;;;;;;5.87;99.98;100913.47;5048719;28;20499;-73
2022/10/10 04:15:57;;;;;;;11.52;5.45;;;;;;;5.86;99.64;100901.22;5045339;28;20040;-73
2022/10/10 04:18:23;;;;;;;7.50;5.20;;;;;;;5.84;99.61;100910.78;5045959;28;20039;-73
2022/10/10 04:20:49;;;;;;;6.88;5.68;;;;;;;5.85;99.89;100913.44;5047521;28;20037;-73
2022/10/10 04:23:15;;;;;;;10.10;6.07;;;;;;;5.86;99.66;100912.56;5043658;28;20060;-73
2022/10/10 04:25:40;;;;;;;7.78;5.57;;;;;;;5.87;99.26;100900.38;5043765;28;20175;-74
2022/10/10 04:28:08;;;;;;;6.32;5.50;;;;;;;5.85;98.96;100900.34;5044808;28;20550;-73
2022/10/10 04:30:34;;;;;;;8.50;5.20;;;;;;;5.84;99.14;100903.84;5041756;28;20052;-74
2022/10/10 04:32:59;;;;;;;8.32;5.32;;;;;;;5.87;99.23;100897.78;5045647;28;20442;-74
2022/10/10 04:35:24;;;;;;;13.35;5.32;;;;;;;5.89;98.82;100893.41;5042685;28;20507;-74
2022/10/10 04:37:50;;;;;;;7.57;4.93;;;;;;;5.91;99.13;100892.59;5048687;28;20025;-74
2022/10/10 04:40:15;;;;;;;12.20;5.45;;;;;;;5.96;99.30;100890.09;5049417;28;20222;-74
2022/10/10 04:42:41;;;;;;;8.05;6.45;;;;;;;5.99;98.27;100886.66;5052029;28;20071;-74
2022/10/10 04:45:07;;;;;;;8.45;5.47;;;;;;;6.01;98.00;100882.31;5055201;28;20030;-74
2022/10/10 04:47:32;;;;;;;8.35;5.68;;;;;;;6.01;98.08;100883.19;5045151;28;20029;-74
2022/10/10 04:49:57;;;;;;;8.40;5.80;;;;;;;6.00;97.75;100878.84;5049423;28;20537;-74
2022/10/10 04:52:22;;;;;;;11.68;7.20;;;;;;;6.02;97.62;100881.47;5048866;28;20116;-74
2022/10/10 04:54:48;;;;;;;10.73;7.30;;;;;;;6.01;97.49;100875.34;5048191;28;20033;-75
2022/10/10 04:57:13;;;;;;;9.10;5.65;;;;;;;6.02;97.33;100876.22;5052950;28;20086;-73
2022/10/10 04:59:38;;;;;;;6.55;5.03;;;;;;;6.00;97.15;100875.31;5051071;28;20037;-74
2022/10/10 05:02:04;;;;;;;15.60;8.85;;;;;;;5.98;97.62;100875.28;5046409;28;20068;-74
2022/10/10 05:04:29;;;;;;;6.22;5.25;;;;;;;5.93;97.38;100869.06;5049518;28;20117;-74
2022/10/10 05:06:55;;;;;;;6.57;4.65;;;;;;;5.92;97.53;100868.19;5057060;28;20463;-74
2022/10/10 05:09:20;;;;;;;7.47;5.43;;;;;;;5.94;97.35;100868.22;5050026;28;20506;-74
2022/10/10 05:11:45;;;;;;;11.23;6.35;;;;;;;5.95;97.59;100864.75;5047438;28;20067;-74
2022/10/10 05:14:10;;;;;;;7.97;5.07;;;;;;;5.98;97.37;100862.19;5047960;28;20549;-74
2022/10/10 05:16:36;;;;;;;7.72;5.20;;;;;;;5.98;97.92;100864.81;5048706;28;20045;-74
2022/10/10 05:19:01;;;;;;;7.97;5.55;;;;;;;6.01;97.95;100859.63;5040821;28;20025;-74
2022/10/10 05:21:27;;;;;;;10.00;5.60;;;;;;;6.05;97.40;100856.22;5044563;28;20402;-74
2022/10/10 05:23:53;;;;;;;8.05;5.10;;;;;;;6.09;97.54;100851.91;5042847;28;20415;-74
2022/10/10 05:26:19;;;;;;;10.60;5.28;;;;;;;6.11;97.67;100848.44;5043080;28;20040;-74
2022/10/10 05:28:45;;;;;;;8.05;5.45;;;;;;;6.13;97.35;100851.97;5044382;28;20051;-73
2022/10/10 05:31:10;;;;;;;9.35;5.15;;;;;;;6.13;96.94;100845.84;5043968;28;20040;-74
2022/10/10 05:33:35;;;;;;;9.25;5.15;;;;;;;6.15;96.62;100852.88;5040765;28;20073;-74
2022/10/10 05:36:06;;;;;;;11.32;5.70;;;;;;;6.17;96.88;100852.91;5043465;28;20115;-74
2022/10/10 05:38:32;;;;;;;8.43;5.20;;;;;;;6.15;96.33;100847.63;5059293;28;20024;-74
2022/10/10 05:40:57;;;;;;;9.43;5.20;;;;;;;6.13;96.60;100841.50;5046501;28;20112;-74
2022/10/10 05:43:23;;;;;;;6.70;5.40;;;;;;;6.11;96.07;100843.22;5041818;28;20574;-73
2022/10/10 05:45:48;;;;;;;8.10;5.22;;;;;;;6.07;95.86;100843.13;5056102;28;20052;-74
2022/10/10 05:48:14;;;;;;;7.55;4.82;;;;;;;6.04;96.11;100836.09;5050241;28;20091;-74
2022/10/10 05:50:44;;;;;;;8.82;6.70;;;;;;;6.00;95.76;100839.53;5043616;28;20037;-74
2022/10/10 05:53:09;;;;;;;8.85;6.40;;;;;;;5.95;96.13;100838.56;5044179;28;20059;-74
2022/10/10 05:55:35;;;;;;;10.52;6.63;;;;;;;5.91;96.08;100839.31;5049514;28;20479;-74
2022/10/10 05:58:00;;;;;;;10.82;6.38;;;;;;;5.89;96.45;100838.41;5048893;28;20100;-74
2022/10/10 06:00:26;;;;;;;9.98;6.00;;;;;;;5.90;96.29;100837.56;5039766;28;20479;-73
2022/10/10 06:02:51;;;;;;;7.80;6.05;;;;;;;5.90;96.06;100837.56;5052831;28;20043;-74
2022/10/10 06:05:16;;;;;;;10.00;6.53;;;;;;;5.92;96.09;100833.22;5045270;28;20041;-74
2022/10/10 06:07:42;;;;;;;9.07;5.70;;;;;;;5.93;96.08;100838.53;5044661;28;20064;-74
2022/10/10 06:10:08;;;;;;;7.82;5.80;;;;;;;5.97;96.27;100834.22;5054286;28;20037;-74
2022/10/10 06:12:33;;;;;;;9.40;5.28;;;;;;;6.01;96.10;100828.19;5046900;28;20033;-74
2022/10/10 06:14:59;;;;;;;8.13;5.57;;;;;;;6.05;96.26;100829.09;5043852;28;20087;-74
2022/10/10 06:17:25;;;;;;;13.88;5.80;;;;;;;6.11;96.32;100829.22;5040392;28;20522;-74
2022/10/10 06:19:50;;;;;;;6.18;5.20;;;;;;;6.17;96.06;100825.81;5042996;28;20111;-74
2022/10/10 06:22:15;;;;;;;11.20;6.10;;;;;;;6.24;95.64;100830.31;5041723;28;20029;-74
2022/10/10 06:24:41;;;;;;;11.13;5.75;;;;;;;6.31;95.79;100827.81;5043893;28;20584;-74
2022/10/10 06:27:06;;;;;;;9.23;6.10;;;;;;;6.44;95.85;100828.88;5042270;28;20047;-74
2022/10/10 06:29:32;;;;;;;10.50;6.32;;;;;;;6.54;95.67;100830.78;5040192;28;20037;-74
2022/10/10 06:31:57;;;;;;;11.55;6.43;;;;;;;6.67;95.66;100834.47;5040036;28;20033;-74
2022/10/10 06:34:22;;;;;;;7.93;5.60;;;;;;;6.79;95.28;100833.78;5045764;28;20033;-74
2022/10/10 06:36:50;;;;;;;7.38;6.05;;;;;;;6.92;95.44;100834.84;5044623;28;20098;-74
2022/10/10 06:39:15;;;;;;;10.85;7.80;;;;;;;7.06;95.13;100835.00;5043717;28;20120;-74
2022/10/10 06:41:40;;;;;;;17.67;11.25;;;;;;;7.20;94.24;100828.16;5057173;28;20032;-74
2022/10/10 06:44:09;;;;;;;13.90;6.43;;;;;;;7.31;93.49;100829.19;5041849;28;20040;-74
2022/10/10 06:46:36;;;;;;;9.80;6.38;;;;;;;7.37;93.49;100829.25;5044820;28;20036;-74
2022/10/10 06:49:03;;;;;;;11.35;5.88;;;;;;;7.47;93.53;100831.13;5041216;28;20033;-74
2022/10/10 06:51:29;;;;;;;8.98;5.88;;;;;;;7.59;92.70;100829.50;5044773;28;20034;-74
2022/10/10 06:53:56;;;;;;;7.53;5.70;;;;;;;7.71;92.72;100839.28;5041520;28;20103;-74
2022/10/10 06:56:21;;;;;;;10.75;5.57;;;;;;;7.77;91.97;100828.81;5066186;28;20032;-74
2022/10/10 06:58:47;;;;;;;7.88;5.68;;;;;;;7.84;92.16;100831.53;5052838;28;20467;-74
2022/10/10 07:01:13;;;;;;;6.57;4.97;;;;;;;7.88;91.35;100830.66;5058992;28;20403;-74
2022/10/10 07:03:38;;;;;;;8.40;5.65;;;;;;;7.84;92.22;100831.53;5042963;28;20045;-74
2022/10/10 07:06:09;;;;;;;5.63;5.13;;;;;;;7.91;92.55;100832.44;5044217;28;20029;-74
2022/10/10 07:08:34;;;;;;;7.63;5.93;;;;;;;7.98;92.15;100833.41;5047757;28;20344;-74
2022/10/10 07:10:59;;;;;;;8.55;6.53;;;;;;;8.09;92.02;100834.38;5045458;28;20026;-74
2022/10/10 07:13:25;;;;;;;9.25;6.93;;;;;;;8.17;91.59;100835.31;5059184;28;20082;-74
2022/10/10 07:15:50;;;;;;;6.63;5.60;;;;;;;8.26;91.66;100835.41;5048421;28;20037;-74
2022/10/10 07:18:17;;;;;;;9.05;5.88;;;;;;;8.35;91.17;100835.47;5044706;28;20487;-74
2022/10/10 07:20:42;;;;;;;10.73;6.38;;;;;;;8.43;90.93;100832.91;5046808;28;20044;-74
2022/10/10 07:23:07;;;;;;;10.10;7.22;;;;;;;8.56;90.88;100828.63;5038617;28;20029;-74
2022/10/10 07:25:33;;;;;;;8.20;5.82;;;;;;;8.66;90.84;100833.09;5042251;28;20730;-74
2022/10/10 07:27:59;;;;;;;7.18;5.78;;;;;;;8.84;90.44;100834.09;5041020;28;20095;-74
2022/10/10 07:30:24;;;;;;;9.15;6.20;;;;;;;8.98;89.05;100835.03;5043184;28;20040;-74
2022/10/10 07:32:52;;;;;;;9.32;6.10;;;;;;;9.12;89.22;100836.00;5041167;28;20068;-74
2022/10/10 07:35:17;;;;;;;7.22;6.00;;;;;;;9.24;88.12;100840.41;5035912;28;20574;-74
2022/10/10 07:37:43;;;;;;;6.53;5.75;;;;;;;9.34;88.28;100841.34;5039258;28;20049;-74
2022/10/10 07:40:09;;;;;;;7.63;6.00;;;;;;;9.44;87.44;100840.50;5038450;28;20037;-74
2022/10/10 07:42:34;;;;;;;7.78;5.32;;;;;;;9.53;86.98;100840.50;5042711;28;20519;-74
2022/10/10 07:45:00;;;;;;;7.40;5.88;;;;;;;9.56;85.99;100840.56;5050014;28;20031;-74
2022/10/10 07:47:25;;;;;;;6.97;6.25;;;;;;;9.59;86.83;100851.09;5042055;28;20055;-74
2022/10/10 07:49:50;;;;;;;9.00;6.68;;;;;;;9.68;85.80;100847.59;5041048;28;20025;-74
2022/10/10 07:52:16;;;;;;;7.18;6.22;;;;;;;9.71;86.31;100826.50;5039616;28;20415;-74
2022/10/10 07:54:41;;;;;;;8.10;6.72;;;;;;;9.80;86.66;100823.03;5042023;28;20567;-75
2022/10/10 07:57:07;;;;;;;12.00;6.47;;;;;;;9.90;86.45;100837.97;5037532;28;20077;-74
2022/10/10 07:59:32;;;;;;;8.23;6.40;;;;;;;10.01;86.33;100832.72;5041703;28;20075;-74
2022/10/10 08:01:57;;;;;;;10.57;6.57;;;;;;;10.12;85.65;100819.53;5040066;28;20073;-74
2022/10/10 08:04:23;;;;;;;8.45;7.00;;;;;;;10.18;85.33;100830.09;5042552;28;20065;-74
2022/10/10 08:06:48;;;;;;;8.65;6.55;;;;;;;10.31;84.97;100824.84;5037434;28;20079;-74
2022/10/10 08:09:13;;;;;;;8.43;6.72;;;;;;;10.46;84.70;100828.34;5050989;28;20033;-74
2022/10/10 08:11:39;;;;;;;14.75;7.32;;;;;;;10.53;83.68;100828.34;5048834;28;20052;-74
2022/10/10 08:14:10;;;;;;;8.02;7.22;;;;;;;10.70;83.81;100828.31;5040948;28;20037;-74
2022/10/10 08:16:36;;;;;;;9.75;7.40;;;;;;;10.84;82.93;100825.63;5045162;28;20041;-74
2022/10/10 08:19:01;;;;;;;7.65;6.85;;;;;;;10.98;82.70;100828.25;5045574;28;20427;-74
2022/10/10 08:21:27;;;;;;;7.43;6.72;;;;;;;11.13;82.26;100817.66;5045613;28;20372;-74
2022/10/10 08:23:52;;;;;;;11.40;7.45;;;;;;;11.27;82.10;100809.66;5047510;28;20061;-74
2022/10/10 08:26:18;;;;;;;7.80;7.00;;;;;;;11.42;81.56;100821.91;5070373;28;20037;-74
2022/10/10 08:28:46;;;;;;;9.70;7.10;;;;;;;11.52;80.40;100814.81;5048530;28;20048;-75
2022/10/10 08:31:14;;;;;;;8.45;7.10;;;;;;;11.66;80.68;100817.34;5045739;28;20377;-75
2022/10/10 08:33:43;;;;;;;7.97;6.43;;;;;;;11.82;80.31;100819.03;5053495;28;20067;-74
2022/10/10 08:36:15;;;;;;;12.73;7.00;;;;;;;12.02;80.21;100821.56;5044528;28;20091;-74
2022/10/10 08:38:41;;;;;;;8.60;7.28;;;;;;;12.19;79.11;100817.03;5049021;28;20033;-75
2022/10/10 08:41:09;;;;;;;8.65;6.70;;;;;;;12.35;78.37;100816.91;5057243;28;20035;-74
2022/10/10 08:43:49;;;;;;;7.57;6.80;;;;;;;12.45;77.48;100816.81;5046603;28;20517;-74
2022/10/10 08:46:19;;;;;;;9.00;7.93;;;;;;;12.61;76.99;100812.22;5043356;28;20095;-75
2022/10/10 08:48:47;;;;;;;9.75;7.65;;;;;;;12.81;76.68;100803.19;5042408;28;20041;-75
2022/10/10 08:51:23;;;;;;;10.30;7.32;;;;;;;12.99;76.12;100797.69;5047584;28;20048;-74
2022/10/10 08:53:54;;;;;;;9.25;6.78;;;;;;;13.15;75.43;100793.97;5041161;28;20421;-74
2022/10/10 08:56:28;;;;;;;10.38;7.00;;;;;;;13.14;74.79;100794.84;5059573;28;20510;-75
2022/10/10 08:58:59;;;;;;;7.63;6.93;;;;;;;13.20;74.95;100798.31;5047464;28;20063;-75
2022/10/10 09:01:32;;;;;;;8.60;7.80;;;;;;;13.19;74.23;100804.53;5047030;28;20494;-74
2022/10/10 09:04:03;;;;;;;7.05;6.38;;;;;;;13.23;73.91;100790.31;5042412;28;20041;-73
2022/10/10 09:06:59;;;;;;;8.60;7.63;;;;;;;13.30;73.40;100797.34;5045176;28;20039;-75
2022/10/10 09:09:51;;;;;;;7.97;7.03;;;;;;;13.43;72.96;100792.75;5049795;28;20032;-75
2022/10/10 09:12:52;;;;;;;10.65;6.95;;;;;;;13.56;72.98;100789.91;5053136;28;20029;-74
2022/10/10 09:15:36;;;;;;;7.57;6.85;;;;;;;13.68;71.44;100799.47;5051098;28;20045;-75
2022/10/10 09:18:35;;;;;;;8.90;7.18;;;;;;;13.87;71.96;100788.59;5048056;28;20080;-75
2022/10/10 09:21:00;;;;;;;8.27;7.40;;;;;;;14.10;72.05;100791.75;5043012;28;20045;-75
2022/10/10 09:23:42;;;;;;;8.82;6.53;;;;;;;14.25;68.24;100785.28;5046254;28;20098;-74
2022/10/10 09:26:11;;;;;;;7.68;6.78;;;;;;;14.35;67.35;100786.88;5042861;28;20677;-75
2022/10/10 09:28:51;;;;;;;14.82;9.00;;;;;;;14.24;64.36;100778.22;5054791;28;20028;-74
2022/10/10 09:31:22;;;;;;;11.77;8.10;;;;;;;14.28;63.73;100774.63;5046892;28;20087;-75
2022/10/10 09:33:57;;;;;;;8.40;7.45;;;;;;;14.36;64.29;100778.03;5025309;28;20163;-74
2022/10/10 09:36:27;;;;;;;9.45;8.55;;;;;;;14.61;66.15;100782.91;5041958;28;20032;-75
2022/10/10 09:38:58;;;;;;;10.15;9.07;;;;;;;14.94;65.05;100775.19;5051462;28;20067;-75
2022/10/10 09:41:38;;;;;;;9.75;8.05;;;;;;;15.10;62.43;100782.81;5048807;28;20041;-75
2022/10/10 09:44:08;;;;;;;8.40;7.63;;;;;;;15.13;61.45;100776.56;5048423;28;20028;-74
2022/10/10 09:46:35;;;;;;;8.52;7.72;;;;;;;15.28;62.87;100762.94;5050131;28;20039;-75
2022/10/10 09:49:01;;;;;;;8.43;7.60;;;;;;;15.19;60.40;100765.78;5042728;28;20043;-75
2022/10/10 09:51:28;;;;;;;12.25;7.75;;;;;;;15.09;61.68;100762.47;5050348;28;20068;-75
2022/10/10 09:53:53;;;;;;;9.73;7.50;;;;;;;15.09;61.74;100766.88;5048309;28;20036;-75
2022/10/10 09:56:23;;;;;;;10.50;7.70;;;;;;;15.00;61.03;100767.09;5047947;28;20029;-75
2022/10/10 09:58:50;;;;;;;10.18;7.85;;;;;;;15.10;62.22;100761.56;5041673;28;20033;-74
2022/10/10 10:01:30;;;;;;;8.73;7.25;;;;;;;15.21;62.58;100748.03;5059293;28;20531;-75
2022/10/10 10:04:09;;;;;;;8.15;7.35;;;;;;;15.38;61.11;100750.31;5042722;28;20055;-75
2022/10/10 10:06:35;;;;;;;10.38;7.25;;;;;;;15.28;61.37;100749.66;5041115;28;20065;-74
2022/10/10 10:09:05;;;;;;;7.15;6.45;;;;;;;15.39;61.97;100749.41;5042857;28;20033;-74
2022/10/10 10:11:33;;;;;;;10.57;6.68;;;;;;;15.50;61.88;100754.47;5047647;28;20135;-75
2022/10/10 10:14:01;;;;;;;9.60;7.22;;;;;;;15.61;61.08;100751.56;5040192;28;20034;-75
2022/10/10 10:16:44;;;;;;;7.40;6.70;;;;;;;15.61;59.60;100755.09;5042767;28;20041;-75
2022/10/10 10:19:33;;;;;;;8.95;6.90;;;;;;;15.44;59.52;100751.97;5042754;28;20119;-74
2022/10/10 10:21:58;;;;;;;9.00;6.47;;;;;;;15.64;60.29;100751.50;5044478;28;20087;-74
2022/10/10 10:24:36;;;;;;;10.02;9.05;;;;;;;15.74;60.08;100745.94;5048829;28;20029;-75
2022/10/10 10:27:09;;;;;;;13.15;9.80;;;;;;;15.71;59.46;100756.66;5042245;28;20033;-75
2022/10/10 10:29:36;;;;;;;9.65;8.75;;;;;;;15.74;60.45;100750.41;5043661;28;20045;-75
2022/10/10 10:32:12;;;;;;;8.93;7.22;;;;;;;15.89;60.53;100750.03;5043189;28;20035;-75
2022/10/10 10:35:03;;;;;;;7.88;7.18;;;;;;;15.97;59.08;100745.38;5043099;28;20155;-75
2022/10/10 10:37:51;;;;;;;8.55;7.80;;;;;;;16.10;59.26;100745.97;5041909;28;20036;-75
2022/10/10 10:40:28;;;;;;;7.85;6.88;;;;;;;16.27;59.75;100747.28;5049055;28;20048;-75
2022/10/10 10:43:15;;;;;;;7.32;6.72;;;;;;;16.25;59.53;100742.03;5041058;28;20445;-74
2022/10/10 10:46:12;;;;;;;7.82;6.97;;;;;;;16.40;57.91;100749.63;5051813;28;20036;-75
2022/10/10 10:48:47;;;;;;;11.00;7.15;;;;;;;16.37;56.85;100746.16;5036973;28;20124;-75
2022/10/10 10:51:24;;;;;;;7.95;7.18;;;;;;;16.44;57.74;100737.94;5046394;28;20025;-75
2022/10/10 10:54:03;;;;;;;7.90;6.85;;;;;;;16.64;57.31;100734.75;5048090;28;20041;-75
2022/10/10 10:57:00;;;;;;;8.15;6.97;;;;;;;16.76;56.33;100736.19;5046508;28;20037;-75
2022/10/10 10:59:59;;;;;;;9.88;6.93;;;;;;;16.53;56.64;100719.97;5042475;28;20055;-74
2022/10/10 11:02:35;;;;;;;8.10;6.55;;;;;;;16.38;57.72;100719.47;5043060;28;20033;-75
2022/10/10 11:05:13;;;;;;;7.03;6.35;;;;;;;16.26;58.03;100729.59;5049193;28;20107;-74
2022/10/10 11:08:06;;;;;;;6.95;5.75;;;;;;;16.18;58.14;100729.78;5039508;28;20055;-75
2022/10/10 11:10:44;;;;;;;8.93;5.95;;;;;;;16.23;58.93;100719.88;5043437;28;21073;-75
2022/10/10 11:13:28;;;;;;;6.80;5.88;;;;;;;16.39;58.50;100712.34;5049985;28;20040;-74
2022/10/10 11:15:58;;;;;;;6.05;5.45;;;;;;;16.34;58.36;100706.28;5043936;28;20033;-74
2022/10/10 11:18:36;;;;;;;7.65;6.15;;;;;;;16.40;57.04;100706.09;5042740;28;20073;-74
2022/10/10 11:21:10;;;;;;;7.30;6.18;;;;;;;16.55;57.79;100695.03;5044718;28;20036;-74
2022/10/10 11:23:59;;;;;;;7.35;6.47;;;;;;;16.71;57.05;100699.91;5045695;28;20048;-75
2022/10/10 11:26:45;;;;;;;7.43;6.72;;;;;;;16.96;57.34;100701.00;5042421;28;20037;-75
2022/10/10 11:29:34;;;;;;;7.13;6.32;;;;;;;17.19;54.59;100691.44;5042458;28;20041;-75
2022/10/10 11:32:13;;;;;;;12.40;9.13;;;;;;;17.18;54.63;100682.53;5042461;28;20033;-74
2022/10/10 11:34:44;;;;;;;17.08;10.20;;;;;;;17.40;56.55;100685.41;5043689;28;20055;-74
2022/10/10 11:37:15;;;;;;;9.85;7.30;;;;;;;17.56;56.83;100683.13;5048923;28;20024;-74
2022/10/10 11:39:54;;;;;;;8.40;7.22;;;;;;;17.75;53.92;100670.91;5044862;28;20171;-75